sensor_id;sensor_type;location;lat;lon;timestamp;pressure;altitude;pressure_sealevel;temperature;humidity
7018;BME280;3549;42.162;24.726;2023-05-14T00:01:18;47542.16;;;-141.97;48.43
7018;BME280;3549;42.162;24.726;2023-05-14T00:03:44;47572.91;;;-141.97;48.75
7018;BME280;3549;42.162;24.726;2023-05-14T00:06:09;47549.84;;;-141.97;48.29
7018;BME280;3549;42.162;24.726;2023-05-14T00:08:35;47599.81;;;-141.97;48.37
7018;BME280;3549;42.162;24.726;2023-05-14T00:11:00;47546.00;;;-141.97;48.49
7018;BME280;3549;42.162;24.726;2023-05-14T00:13:26;47557.53;;;-141.97;48.67
7018;BME280;3549;42.162;24.726;2023-05-14T00:15:51;47553.69;;;-141.97;48.49
7018;BME280;3549;42.162;24.726;2023-05-14T00:18:17;47546.00;;;-141.97;48.40
7018;BME280;3549;42.162;24.726;2023-05-14T00:20:42;47546.00;;;-141.97;48.64
7018;BME280;3549;42.162;24.726;2023-05-14T00:23:07;47584.44;;;-141.97;48.57
7018;BME280;3549;42.162;24.726;2023-05-14T00:25:33;47557.53;;;-141.97;48.19
7018;BME280;3549;42.162;24.726;2023-05-14T00:27:58;47574.81;;;-141.97;47.93
7018;BME280;3549;42.162;24.726;2023-05-14T00:30:24;47574.81;;;-141.97;48.43
7018;BME280;3549;42.162;24.726;2023-05-14T00:32:49;47576.75;;;-141.97;48.26
7018;BME280;3549;42.162;24.726;2023-05-14T00:35:15;47740.13;;;-141.97;48.26
7018;BME280;3549;42.162;24.726;2023-05-14T00:37:40;47553.69;;;-141.97;48.00
7018;BME280;3549;42.162;24.726;2023-05-14T00:40:06;47563.28;;;-141.97;48.16
7018;BME280;3549;42.162;24.726;2023-05-14T00:42:33;47578.66;;;-141.97;48.01
7018;BME280;3549;42.162;24.726;2023-05-14T00:44:58;47578.66;;;-141.97;48.13
7018;BME280;3549;42.162;24.726;2023-05-14T00:47:23;47609.41;;;-141.97;47.96
7018;BME280;3549;42.162;24.726;2023-05-14T00:49:49;47609.41;;;-141.97;47.66
7018;BME280;3549;42.162;24.726;2023-05-14T00:52:15;47601.72;;;-141.97;47.94
7018;BME280;3549;42.162;24.726;2023-05-14T00:54:41;47515.22;;;-141.97;48.10
7018;BME280;3549;42.162;24.726;2023-05-14T00:57:06;47580.59;;;-141.97;47.92
7018;BME280;3549;42.162;24.726;2023-05-14T00:59:32;47753.56;;;-141.97;47.78
7018;BME280;3549;42.162;24.726;2023-05-14T01:01:58;47578.66;;;-141.97;48.19
7018;BME280;3549;42.162;24.726;2023-05-14T01:04:23;47588.28;;;-141.97;47.96
7018;BME280;3549;42.162;24.726;2023-05-14T01:09:50;47515.22;;;-141.97;48.35
7018;BME280;3549;42.162;24.726;2023-05-14T01:15:28;47576.75;;;-141.97;48.84
7018;BME280;3549;42.162;24.726;2023-05-14T01:18:04;47578.66;;;-141.97;48.54
7018;BME280;3549;42.162;24.726;2023-05-14T01:20:29;47546.00;;;-141.97;48.35
7018;BME280;3549;42.162;24.726;2023-05-14T01:22:55;47569.06;;;-141.97;48.77
7018;BME280;3549;42.162;24.726;2023-05-14T01:25:20;47592.13;;;-141.97;49.13
7018;BME280;3549;42.162;24.726;2023-05-14T01:30:28;47613.25;;;-141.97;48.82
7018;BME280;3549;42.162;24.726;2023-05-14T01:32:58;47569.06;;;-141.97;48.87
7018;BME280;3549;42.162;24.726;2023-05-14T01:35:28;47594.03;;;-141.97;48.88
7018;BME280;3549;42.162;24.726;2023-05-14T01:37:59;47615.19;;;-141.97;48.83
7018;BME280;3549;42.162;24.726;2023-05-14T01:40:25;47546.00;;;-141.97;48.73
7018;BME280;3549;42.162;24.726;2023-05-14T01:42:51;47580.59;;;-141.97;48.90
7018;BME280;3549;42.162;24.726;2023-05-14T01:45:19;47582.50;;;-141.97;49.33
7018;BME280;3549;42.162;24.726;2023-05-14T01:47:45;47576.75;;;-141.97;49.65
7018;BME280;3549;42.162;24.726;2023-05-14T01:50:11;47619.03;;;-141.97;49.43
7018;BME280;3549;42.162;24.726;2023-05-14T01:52:36;47517.16;;;-141.97;49.41
7018;BME280;3549;42.162;24.726;2023-05-14T01:55:02;47546.00;;;-141.97;49.54
7018;BME280;3549;42.162;24.726;2023-05-14T01:57:29;47507.53;;;-141.97;50.26
7018;BME280;3549;42.162;24.726;2023-05-14T01:59:54;47580.59;;;-141.97;50.21
7018;BME280;3549;42.162;24.726;2023-05-14T02:02:19;47599.81;;;-141.97;50.44
7018;BME280;3549;42.162;24.726;2023-05-14T02:04:45;47569.06;;;-141.97;50.30
7018;BME280;3549;42.162;24.726;2023-05-14T02:07:11;47586.34;;;-141.97;50.70
7018;BME280;3549;42.162;24.726;2023-05-14T02:09:36;47572.91;;;-141.97;51.06
7018;BME280;3549;42.162;24.726;2023-05-14T02:12:02;47597.88;;;-141.97;50.84
7018;BME280;3549;42.162;24.726;2023-05-14T02:14:27;47567.13;;;-141.97;50.92
7018;BME280;3549;42.162;24.726;2023-05-14T02:16:53;47590.19;;;-141.97;51.25
7018;BME280;3549;42.162;24.726;2023-05-14T02:19:18;47592.13;;;-141.97;51.23
7018;BME280;3549;42.162;24.726;2023-05-14T02:21:44;47594.03;;;-141.97;51.25
7018;BME280;3549;42.162;24.726;2023-05-14T02:24:09;47430.66;;;-141.97;51.31
7018;BME280;3549;42.162;24.726;2023-05-14T02:26:36;47665.16;;;-141.97;51.37
7018;BME280;3549;42.162;24.726;2023-05-14T02:29:01;47549.84;;;-141.97;51.42
7018;BME280;3549;42.162;24.726;2023-05-14T02:31:26;47586.34;;;-141.97;50.84
7018;BME280;3549;42.162;24.726;2023-05-14T02:33:52;47586.34;;;-141.97;50.89
7018;BME280;3549;42.162;24.726;2023-05-14T02:36:17;47703.59;;;-141.97;50.80
7018;BME280;3549;42.162;24.726;2023-05-14T02:38:43;47611.34;;;-141.97;50.66
7018;BME280;3549;42.162;24.726;2023-05-14T02:41:08;47565.22;;;-141.97;50.96
7018;BME280;3549;42.162;24.726;2023-05-14T02:43:33;47469.09;;;-141.97;50.76
7018;BME280;3549;42.162;24.726;2023-05-14T02:45:59;47667.06;;;-141.97;50.81
7018;BME280;3549;42.162;24.726;2023-05-14T02:48:24;47567.13;;;-141.97;50.95
7018;BME280;3549;42.162;24.726;2023-05-14T02:50:50;47555.59;;;-141.97;50.63
7018;BME280;3549;42.162;24.726;2023-05-14T02:53:16;47534.44;;;-141.97;50.84
7018;BME280;3549;42.162;24.726;2023-05-14T02:55:41;47588.28;;;-141.97;50.67
7018;BME280;3549;42.162;24.726;2023-05-14T02:58:07;47584.44;;;-141.97;50.48
7018;BME280;3549;42.162;24.726;2023-05-14T03:00:32;47553.69;;;-141.97;50.61
7018;BME280;3549;42.162;24.726;2023-05-14T03:02:58;47557.53;;;-141.97;50.52
7018;BME280;3549;42.162;24.726;2023-05-14T03:05:23;47574.81;;;-141.97;50.06
7018;BME280;3549;42.162;24.726;2023-05-14T03:07:50;47603.66;;;-141.97;50.32
7018;BME280;3549;42.162;24.726;2023-05-14T03:10:16;47594.03;;;-141.97;50.75
7018;BME280;3549;42.162;24.726;2023-05-14T03:12:41;47607.50;;;-141.97;50.46
7018;BME280;3549;42.162;24.726;2023-05-14T03:15:07;47601.72;;;-141.97;50.92
7018;BME280;3549;42.162;24.726;2023-05-14T03:17:33;47611.34;;;-141.97;50.87
7018;BME280;3549;42.162;24.726;2023-05-14T03:19:58;47607.50;;;-141.97;51.13
7018;BME280;3549;42.162;24.726;2023-05-14T03:22:24;47561.38;;;-141.97;51.35
7018;BME280;3549;42.162;24.726;2023-05-14T03:24:49;47567.13;;;-141.97;51.65
7018;BME280;3549;42.162;24.726;2023-05-14T03:27:15;47607.50;;;-141.97;51.19
7018;BME280;3549;42.162;24.726;2023-05-14T03:29:40;47607.50;;;-141.97;51.15
7018;BME280;3549;42.162;24.726;2023-05-14T03:32:06;47586.34;;;-141.97;51.13
7018;BME280;3549;42.162;24.726;2023-05-14T03:34:31;47576.75;;;-141.97;51.29
7018;BME280;3549;42.162;24.726;2023-05-14T03:36:57;47507.53;;;-141.97;52.03
7018;BME280;3549;42.162;24.726;2023-05-14T03:39:22;47592.13;;;-141.97;51.59
7018;BME280;3549;42.162;24.726;2023-05-14T03:41:48;47546.00;;;-141.97;51.54
7018;BME280;3549;42.162;24.726;2023-05-14T03:44:13;47569.06;;;-141.97;51.85
7018;BME280;3549;42.162;24.726;2023-05-14T03:46:42;47582.50;;;-141.97;51.76
7018;BME280;3549;42.162;24.726;2023-05-14T03:49:07;47569.06;;;-141.97;52.34
7018;BME280;3549;42.162;24.726;2023-05-14T03:51:33;47538.28;;;-141.97;52.75
7018;BME280;3549;42.162;24.726;2023-05-14T03:53:58;47753.56;;;-141.97;53.19
7018;BME280;3549;42.162;24.726;2023-05-14T03:56:26;47496.00;;;-141.97;53.85
7018;BME280;3549;42.162;24.726;2023-05-14T03:58:52;47599.81;;;-141.97;53.64
7018;BME280;3549;42.162;24.726;2023-05-14T04:01:17;47582.50;;;-141.97;53.42
7018;BME280;3549;42.162;24.726;2023-05-14T04:03:43;47626.72;;;-141.97;53.17
7018;BME280;3549;42.162;24.726;2023-05-14T04:06:08;47567.13;;;-141.97;53.01
7018;BME280;3549;42.162;24.726;2023-05-14T04:08:34;47542.16;;;-141.97;52.70
7018;BME280;3549;42.162;24.726;2023-05-14T04:10:59;47576.75;;;-141.97;53.57
7018;BME280;3549;42.162;24.726;2023-05-14T04:13:24;47588.28;;;-141.97;53.58
7018;BME280;3549;42.162;24.726;2023-05-14T04:15:50;47572.91;;;-141.97;52.87
7018;BME280;3549;42.162;24.726;2023-05-14T04:18:15;47576.75;;;-141.97;52.56
7018;BME280;3549;42.162;24.726;2023-05-14T04:20:41;47542.16;;;-141.97;52.02
7018;BME280;3549;42.162;24.726;2023-05-14T04:23:07;47597.88;;;-141.97;52.34
7018;BME280;3549;42.162;24.726;2023-05-14T04:25:32;47569.06;;;-141.97;51.76
7018;BME280;3549;42.162;24.726;2023-05-14T04:27:57;47615.19;;;-141.97;51.81
7018;BME280;3549;42.162;24.726;2023-05-14T04:30:23;47645.94;;;-141.97;51.57
7018;BME280;3549;42.162;24.726;2023-05-14T04:32:48;47605.56;;;-141.97;51.25
7018;BME280;3549;42.162;24.726;2023-05-14T04:35:14;47497.94;;;-141.97;51.10
7018;BME280;3549;42.162;24.726;2023-05-14T04:37:40;47611.34;;;-141.97;50.85
7018;BME280;3549;42.162;24.726;2023-05-14T04:40:06;47534.44;;;-141.97;51.01
7018;BME280;3549;42.162;24.726;2023-05-14T04:42:32;47580.59;;;-141.97;50.24
7018;BME280;3549;42.162;24.726;2023-05-14T04:44:58;47588.28;;;-141.97;50.40
7018;BME280;3549;42.162;24.726;2023-05-14T04:47:23;47594.03;;;-141.97;51.30
7018;BME280;3549;42.162;24.726;2023-05-14T04:49:49;47611.34;;;-141.97;51.82
7018;BME280;3549;42.162;24.726;2023-05-14T04:52:14;47494.09;;;-141.97;52.47
7018;BME280;3549;42.162;24.726;2023-05-14T04:54:40;47511.38;;;-141.97;51.81
7018;BME280;3549;42.162;24.726;2023-05-14T04:57:05;47611.34;;;-141.97;51.31
7018;BME280;3549;42.162;24.726;2023-05-14T04:59:31;47578.66;;;-141.97;51.21
7018;BME280;3549;42.162;24.726;2023-05-14T05:01:56;47503.69;;;-141.97;51.53
7018;BME280;3549;42.162;24.726;2023-05-14T05:04:22;47565.22;;;-141.97;51.55
7018;BME280;3549;42.162;24.726;2023-05-14T05:06:48;47586.34;;;-141.97;52.45
7018;BME280;3549;42.162;24.726;2023-05-14T05:09:14;47603.66;;;-141.97;52.15
7018;BME280;3549;42.162;24.726;2023-05-14T05:11:40;47595.97;;;-141.97;52.02
7018;BME280;3549;42.162;24.726;2023-05-14T05:14:05;47624.78;;;-141.97;51.93
7018;BME280;3549;42.162;24.726;2023-05-14T05:16:31;47661.31;;;-141.97;52.00
7018;BME280;3549;42.162;24.726;2023-05-14T05:18:56;47601.72;;;-141.97;52.65
7018;BME280;3549;42.162;24.726;2023-05-14T05:21:22;47588.28;;;-141.97;52.51
7018;BME280;3549;42.162;24.726;2023-05-14T05:23:47;47711.28;;;-141.97;51.98
7018;BME280;3549;42.162;24.726;2023-05-14T05:26:13;47609.41;;;-141.97;51.83
7018;BME280;3549;42.162;24.726;2023-05-14T05:28:38;47580.59;;;-141.97;52.34
7018;BME280;3549;42.162;24.726;2023-05-14T05:31:04;47615.19;;;-141.97;52.51
7018;BME280;3549;42.162;24.726;2023-05-14T05:33:29;47565.22;;;-141.97;52.22
7018;BME280;3549;42.162;24.726;2023-05-14T05:35:55;47595.97;;;-141.97;52.28
7018;BME280;3549;42.162;24.726;2023-05-14T05:38:20;47540.22;;;-141.97;52.62
7018;BME280;3549;42.162;24.726;2023-05-14T05:40:46;47728.59;;;-141.97;52.48
7018;BME280;3549;42.162;24.726;2023-05-14T05:43:13;47572.91;;;-141.97;52.17
7018;BME280;3549;42.162;24.726;2023-05-14T05:45:38;47515.22;;;-141.97;51.44
7018;BME280;3549;42.162;24.726;2023-05-14T05:48:04;47565.22;;;-141.97;51.43
7018;BME280;3549;42.162;24.726;2023-05-14T05:50:29;47570.97;;;-141.97;50.81
7018;BME280;3549;42.162;24.726;2023-05-14T05:52:56;47611.34;;;-141.97;50.35
7018;BME280;3549;42.162;24.726;2023-05-14T05:55:23;47611.34;;;-141.97;51.28
7018;BME280;3549;42.162;24.726;2023-05-14T05:57:49;47365.31;;;-141.97;50.58
7018;BME280;3549;42.162;24.726;2023-05-14T06:00:14;47605.56;;;-141.97;51.53
7018;BME280;3549;42.162;24.726;2023-05-14T06:02:41;47348.03;;;-141.97;51.36
7018;BME280;3549;42.162;24.726;2023-05-14T06:05:08;47613.25;;;-141.97;51.64
7018;BME280;3549;42.162;24.726;2023-05-14T06:07:34;47559.44;;;-141.97;51.79
7018;BME280;3549;42.162;24.726;2023-05-14T06:10:00;47661.31;;;-141.97;51.56
7018;BME280;3549;42.162;24.726;2023-05-14T06:12:26;47521.00;;;-141.97;50.93
7018;BME280;3549;42.162;24.726;2023-05-14T06:14:53;47717.06;;;-141.97;51.38
7018;BME280;3549;42.162;24.726;2023-05-14T06:17:20;47722.81;;;-141.97;51.41
7018;BME280;3549;42.162;24.726;2023-05-14T06:19:45;47609.41;;;-141.97;51.15
7018;BME280;3549;42.162;24.726;2023-05-14T06:22:11;47584.44;;;-141.97;51.41
7018;BME280;3549;42.162;24.726;2023-05-14T06:24:36;47753.56;;;-141.97;51.42
7018;BME280;3549;42.162;24.726;2023-05-14T06:27:02;47609.41;;;-141.97;51.18
7018;BME280;3549;42.162;24.726;2023-05-14T06:29:27;47601.72;;;-141.97;51.61
7018;BME280;3549;42.162;24.726;2023-05-14T06:31:53;47592.13;;;-141.97;51.64
7018;BME280;3549;42.162;24.726;2023-05-14T06:34:18;47484.47;;;-141.97;51.91
7018;BME280;3549;42.162;24.726;2023-05-14T06:36:43;47538.28;;;-141.97;52.17
7018;BME280;3549;42.162;24.726;2023-05-14T06:39:09;47715.13;;;-141.97;52.10
7018;BME280;3549;42.162;24.726;2023-05-14T06:41:34;47619.03;;;-141.97;54.17
7018;BME280;3549;42.162;24.726;2023-05-14T06:44:00;47745.88;;;-141.97;58.65
7018;BME280;3549;42.162;24.726;2023-05-14T06:46:25;47730.50;;;-141.97;62.54
7018;BME280;3549;42.162;24.726;2023-05-14T06:48:50;47478.72;;;-141.97;67.64
7018;BME280;3549;42.162;24.726;2023-05-14T06:51:16;47578.66;;;-141.97;70.76
7018;BME280;3549;42.162;24.726;2023-05-14T06:53:41;47451.81;;;-141.97;74.83
7018;BME280;3549;42.162;24.726;2023-05-14T06:56:06;47588.28;;;-141.97;78.20
7018;BME280;3549;42.162;24.726;2023-05-14T06:58:32;47619.03;;;-141.97;78.44
7018;BME280;3549;42.162;24.726;2023-05-14T07:00:57;47563.28;;;-141.97;77.87
7018;BME280;3549;42.162;24.726;2023-05-14T07:03:23;47603.66;;;-141.97;77.12
7018;BME280;3549;42.162;24.726;2023-05-14T07:05:48;47592.13;;;-141.97;76.42
7018;BME280;3549;42.162;24.726;2023-05-14T07:08:14;47740.13;;;-141.97;76.36
7018;BME280;3549;42.162;24.726;2023-05-14T07:10:39;47620.94;;;-141.97;77.10
7018;BME280;3549;42.162;24.726;2023-05-14T07:13:05;47494.09;;;-141.97;79.18
7018;BME280;3549;42.162;24.726;2023-05-14T07:15:30;47634.41;;;-141.97;79.98
7018;BME280;3549;42.162;24.726;2023-05-14T07:17:55;47720.91;;;-141.97;77.89
7018;BME280;3549;42.162;24.726;2023-05-14T07:20:21;47613.25;;;-141.97;75.46
7018;BME280;3549;42.162;24.726;2023-05-14T07:22:51;47736.28;;;-141.97;74.10
7018;BME280;3549;42.162;24.726;2023-05-14T07:25:17;47471.03;;;-141.97;76.80
7018;BME280;3549;42.162;24.726;2023-05-14T07:27:42;47603.66;;;-141.97;80.76
7018;BME280;3549;42.162;24.726;2023-05-14T07:30:08;47624.78;;;-141.97;83.49
7018;BME280;3549;42.162;24.726;2023-05-14T07:32:33;47532.53;;;-141.97;80.47
7018;BME280;3549;42.162;24.726;2023-05-14T07:34:59;47659.38;;;-141.97;83.19
7018;BME280;3549;42.162;24.726;2023-05-14T07:37:24;47609.41;;;-141.97;80.96
7018;BME280;3549;42.162;24.726;2023-05-14T07:39:51;47609.41;;;-141.97;78.50
7018;BME280;3549;42.162;24.726;2023-05-14T07:42:17;47649.78;;;-141.97;75.80
7018;BME280;3549;42.162;24.726;2023-05-14T07:44:42;47603.66;;;-141.97;76.02
7018;BME280;3549;42.162;24.726;2023-05-14T07:47:08;47669.00;;;-141.97;75.15
7018;BME280;3549;42.162;24.726;2023-05-14T07:49:33;47615.19;;;-141.97;80.31
7018;BME280;3549;42.162;24.726;2023-05-14T07:51:59;47580.59;;;-141.97;80.58
7018;BME280;3549;42.162;24.726;2023-05-14T07:54:24;47578.66;;;-141.97;81.90
7018;BME280;3549;42.162;24.726;2023-05-14T07:56:50;47546.00;;;-141.97;85.77
7018;BME280;3549;42.162;24.726;2023-05-14T07:59:15;47549.84;;;-141.97;88.22
7018;BME280;3549;42.162;24.726;2023-05-14T08:01:40;47540.22;;;-141.97;89.29
7018;BME280;3549;42.162;24.726;2023-05-14T08:04:06;47624.78;;;-141.97;91.71
7018;BME280;3549;42.162;24.726;2023-05-14T08:06:32;47617.09;;;-141.97;93.17
7018;BME280;3549;42.162;24.726;2023-05-14T08:08:58;47553.69;;;-141.97;93.43
7018;BME280;3549;42.162;24.726;2023-05-14T08:11:23;47611.34;;;-141.97;92.27
7018;BME280;3549;42.162;24.726;2023-05-14T08:13:49;47576.75;;;-141.97;90.10
7018;BME280;3549;42.162;24.726;2023-05-14T08:16:14;47630.56;;;-141.97;88.98
7018;BME280;3549;42.162;24.726;2023-05-14T08:18:40;47622.88;;;-141.97;88.81
7018;BME280;3549;42.162;24.726;2023-05-14T08:21:05;47609.41;;;-141.97;88.69
7018;BME280;3549;42.162;24.726;2023-05-14T08:23:31;47586.34;;;-141.97;91.44
7018;BME280;3549;42.162;24.726;2023-05-14T08:25:56;47653.63;;;-141.97;91.56
7018;BME280;3549;42.162;24.726;2023-05-14T08:28:23;47601.72;;;-141.97;89.35
7018;BME280;3549;42.162;24.726;2023-05-14T08:30:48;47628.63;;;-141.97;89.77
7018;BME280;3549;42.162;24.726;2023-05-14T08:33:14;47597.88;;;-141.97;89.35
7018;BME280;3549;42.162;24.726;2023-05-14T08:35:39;47655.53;;;-141.97;89.93
7018;BME280;3549;42.162;24.726;2023-05-14T08:38:04;47619.03;;;-141.97;91.58
7018;BME280;3549;42.162;24.726;2023-05-14T08:40:30;47770.88;;;-141.97;96.50
7018;BME280;3549;42.162;24.726;2023-05-14T08:42:56;47626.72;;;-141.97;97.03
7018;BME280;3549;42.162;24.726;2023-05-14T08:45:29;47628.63;;;-141.97;96.95
7018;BME280;3549;42.162;24.726;2023-05-14T08:47:59;47617.09;;;-141.97;96.32
7018;BME280;3549;42.162;24.726;2023-05-14T08:50:29;47617.09;;;-141.97;97.58
7018;BME280;3549;42.162;24.726;2023-05-14T08:52:56;47607.50;;;-141.97;99.18
7018;BME280;3549;42.162;24.726;2023-05-14T08:55:21;47619.03;;;-141.97;99.29
7018;BME280;3549;42.162;24.726;2023-05-14T08:57:47;47530.59;;;-141.97;100.00
7018;BME280;3549;42.162;24.726;2023-05-14T09:00:13;47638.25;;;-141.97;100.00
7018;BME280;3549;42.162;24.726;2023-05-14T09:02:40;47647.84;;;-141.97;100.00
7018;BME280;3549;42.162;24.726;2023-05-14T09:05:06;47534.44;;;-141.97;100.00
7018;BME280;3549;42.162;24.726;2023-05-14T09:07:33;47615.19;;;-141.97;100.00
7018;BME280;3549;42.162;24.726;2023-05-14T09:10:00;47628.63;;;-141.97;100.00
7018;BME280;3549;42.162;24.726;2023-05-14T09:12:26;47615.19;;;-141.97;100.00
7018;BME280;3549;42.162;24.726;2023-05-14T09:14:51;47651.69;;;-141.97;100.00
7018;BME280;3549;42.162;24.726;2023-05-14T09:17:17;47644.00;;;-141.97;100.00
7018;BME280;3549;42.162;24.726;2023-05-14T09:19:44;47563.28;;;-141.97;100.00
7018;BME280;3549;42.162;24.726;2023-05-14T09:22:14;47597.88;;;-141.97;98.23
7018;BME280;3549;42.162;24.726;2023-05-14T09:24:40;47630.56;;;-141.97;98.34
7018;BME280;3549;42.162;24.726;2023-05-14T09:27:08;47611.34;;;-141.97;98.03
7018;BME280;3549;42.162;24.726;2023-05-14T09:29:34;47620.94;;;-141.97;97.46
7018;BME280;3549;42.162;24.726;2023-05-14T09:32:00;47607.50;;;-141.97;97.55
7018;BME280;3549;42.162;24.726;2023-05-14T09:34:34;47661.31;;;-141.97;97.12
7018;BME280;3549;42.162;24.726;2023-05-14T09:37:06;47644.00;;;-141.97;97.40
7018;BME280;3549;42.162;24.726;2023-05-14T09:39:33;47569.06;;;-141.97;96.95
7018;BME280;3549;42.162;24.726;2023-05-14T09:41:59;47757.41;;;-141.97;96.71
7018;BME280;3549;42.162;24.726;2023-05-14T09:44:24;47622.88;;;-141.97;97.68
7018;BME280;3549;42.162;24.726;2023-05-14T09:46:50;47630.56;;;-141.97;97.54
7018;BME280;3549;42.162;24.726;2023-05-14T09:49:16;47626.72;;;-141.97;97.27
7018;BME280;3549;42.162;24.726;2023-05-14T09:51:42;47697.84;;;-141.97;97.30
7018;BME280;3549;42.162;24.726;2023-05-14T09:54:08;47640.16;;;-141.97;96.75
7018;BME280;3549;42.162;24.726;2023-05-14T09:56:34;47569.06;;;-141.97;96.81
7018;BME280;3549;42.162;24.726;2023-05-14T09:59:00;47659.38;;;-141.97;93.17
7018;BME280;3549;42.162;24.726;2023-05-14T10:01:27;47622.88;;;-141.97;91.56
7018;BME280;3549;42.162;24.726;2023-05-14T10:03:53;47565.22;;;-141.97;89.48
7018;BME280;3549;42.162;24.726;2023-05-14T10:06:22;47647.84;;;-141.97;88.21
7018;BME280;3549;42.162;24.726;2023-05-14T10:08:53;47619.03;;;-141.97;87.72
7018;BME280;3549;42.162;24.726;2023-05-14T10:11:19;47605.56;;;-141.97;86.87
7018;BME280;3549;42.162;24.726;2023-05-14T10:16:36;47613.25;;;-141.97;88.29
7018;BME280;3549;42.162;24.726;2023-05-14T10:19:08;47663.22;;;-141.97;86.45
7018;BME280;3549;42.162;24.726;2023-05-14T10:21:35;47634.41;;;-141.97;85.44
7018;BME280;3549;42.162;24.726;2023-05-14T10:24:02;47711.28;;;-141.97;86.74
7018;BME280;3549;42.162;24.726;2023-05-14T10:26:30;47653.63;;;-141.97;88.82
7018;BME280;3549;42.162;24.726;2023-05-14T10:28:56;47690.16;;;-141.97;88.97
7018;BME280;3549;42.162;24.726;2023-05-14T10:31:23;47661.31;;;-141.97;90.08
7018;BME280;3549;42.162;24.726;2023-05-14T10:33:49;47595.97;;;-141.97;90.36
7018;BME280;3549;42.162;24.726;2023-05-14T10:36:17;47742.03;;;-141.97;90.78
7018;BME280;3549;42.162;24.726;2023-05-14T10:38:45;47626.72;;;-141.97;90.51
7018;BME280;3549;42.162;24.726;2023-05-14T10:41:12;47626.72;;;-141.97;93.57
7018;BME280;3549;42.162;24.726;2023-05-14T10:43:41;47788.19;;;-141.97;93.38
7018;BME280;3549;42.162;24.726;2023-05-14T10:46:08;47542.16;;;-141.97;94.85
7018;BME280;3549;42.162;24.726;2023-05-14T10:48:36;47776.63;;;-141.97;93.95
7018;BME280;3549;42.162;24.726;2023-05-14T10:51:06;47603.66;;;-141.97;92.35
7018;BME280;3549;42.162;24.726;2023-05-14T10:53:40;47636.31;;;-141.97;88.44
7018;BME280;3549;42.162;24.726;2023-05-14T10:56:10;47628.63;;;-141.97;87.90
7018;BME280;3549;42.162;24.726;2023-05-14T10:58:41;47582.50;;;-141.97;86.96
7018;BME280;3549;42.162;24.726;2023-05-14T11:01:09;47642.09;;;-141.97;83.83
7018;BME280;3549;42.162;24.726;2023-05-14T11:03:43;47634.41;;;-141.97;78.71
7018;BME280;3549;42.162;24.726;2023-05-14T11:06:10;47617.09;;;-141.97;75.50
7018;BME280;3549;42.162;24.726;2023-05-14T11:08:37;47649.78;;;-141.97;79.43
7018;BME280;3549;42.162;24.726;2023-05-14T11:11:04;47563.28;;;-141.97;76.68
7018;BME280;3549;42.162;24.726;2023-05-14T11:13:30;47595.97;;;-141.97;76.58
7018;BME280;3549;42.162;24.726;2023-05-14T11:15:57;47592.13;;;-141.97;73.43
7018;BME280;3549;42.162;24.726;2023-05-14T11:18:29;47609.41;;;-141.97;73.71
7018;BME280;3549;42.162;24.726;2023-05-14T11:20:59;47592.13;;;-141.97;73.83
7018;BME280;3549;42.162;24.726;2023-05-14T11:23:25;47603.66;;;-141.97;70.94
7018;BME280;3549;42.162;24.726;2023-05-14T11:25:51;47665.16;;;-141.97;67.90
7018;BME280;3549;42.162;24.726;2023-05-14T11:28:19;47638.25;;;-141.97;70.21
7018;BME280;3549;42.162;24.726;2023-05-14T11:30:45;47619.03;;;-141.97;70.27
7018;BME280;3549;42.162;24.726;2023-05-14T11:33:11;47530.59;;;-141.97;71.75
7018;BME280;3549;42.162;24.726;2023-05-14T11:35:39;47736.28;;;-141.97;74.25
7018;BME280;3549;42.162;24.726;2023-05-14T11:38:12;47619.03;;;-141.97;74.87
7018;BME280;3549;42.162;24.726;2023-05-14T11:40:38;47642.09;;;-141.97;73.32
7018;BME280;3549;42.162;24.726;2023-05-14T11:43:04;47584.44;;;-141.97;74.09
7018;BME280;3549;42.162;24.726;2023-05-14T11:45:29;47617.09;;;-141.97;73.88
7018;BME280;3549;42.162;24.726;2023-05-14T11:47:57;47613.25;;;-141.97;74.98
7018;BME280;3549;42.162;24.726;2023-05-14T11:50:23;47586.34;;;-141.97;71.22
7018;BME280;3549;42.162;24.726;2023-05-14T11:52:49;47595.97;;;-141.97;71.61
7018;BME280;3549;42.162;24.726;2023-05-14T11:55:15;47617.09;;;-141.97;69.68
7018;BME280;3549;42.162;24.726;2023-05-14T11:57:41;47603.66;;;-141.97;65.92
7018;BME280;3549;42.162;24.726;2023-05-14T12:00:09;47599.81;;;-141.97;63.53
7018;BME280;3549;42.162;24.726;2023-05-14T12:02:37;47576.75;;;-141.97;62.75
7018;BME280;3549;42.162;24.726;2023-05-14T12:05:06;47569.06;;;-141.97;63.39
7018;BME280;3549;42.162;24.726;2023-05-14T12:07:33;47615.19;;;-141.97;62.77
7018;BME280;3549;42.162;24.726;2023-05-14T12:10:00;47567.13;;;-141.97;63.58
7018;BME280;3549;42.162;24.726;2023-05-14T12:12:26;47588.28;;;-141.97;63.91
7018;BME280;3549;42.162;24.726;2023-05-14T12:14:51;47626.72;;;-141.97;65.38
7018;BME280;3549;42.162;24.726;2023-05-14T12:17:19;47567.13;;;-141.97;66.65
7018;BME280;3549;42.162;24.726;2023-05-14T12:19:46;47594.03;;;-141.97;68.42
7018;BME280;3549;42.162;24.726;2023-05-14T12:22:16;47622.88;;;-141.97;67.75
7018;BME280;3549;42.162;24.726;2023-05-14T12:24:42;47669.00;;;-141.97;69.86
7018;BME280;3549;42.162;24.726;2023-05-14T12:27:16;47547.91;;;-141.97;69.84
7018;BME280;3549;42.162;24.726;2023-05-14T12:29:42;47597.88;;;-141.97;70.08
7018;BME280;3549;42.162;24.726;2023-05-14T12:32:08;47586.34;;;-141.97;69.71
7018;BME280;3549;42.162;24.726;2023-05-14T12:34:34;47592.13;;;-141.97;73.23
7018;BME280;3549;42.162;24.726;2023-05-14T12:37:00;47599.81;;;-141.97;76.30
7018;BME280;3549;42.162;24.726;2023-05-14T12:39:25;47722.81;;;-141.97;76.81
7018;BME280;3549;42.162;24.726;2023-05-14T12:41:51;47588.28;;;-141.97;77.41
7018;BME280;3549;42.162;24.726;2023-05-14T12:44:17;47597.88;;;-141.97;75.47
7018;BME280;3549;42.162;24.726;2023-05-14T12:46:42;47630.56;;;-141.97;74.73
7018;BME280;3549;42.162;24.726;2023-05-14T12:49:08;47599.81;;;-141.97;74.05
7018;BME280;3549;42.162;24.726;2023-05-14T12:51:33;47595.97;;;-141.97;76.87
7018;BME280;3549;42.162;24.726;2023-05-14T12:53:59;47622.88;;;-141.97;80.74
7018;BME280;3549;42.162;24.726;2023-05-14T12:56:24;47753.56;;;-141.97;82.68